Ashtabula, Ohio
Current Conditions -  °F | °C
As of 2:53 PM on Saturday 25 Oct 2014 (Local Time) from KHZY Reporting Station
Broken Clouds Broken Clouds  
Wind Chill: 64°   Ceiling: 2800
Heat Index: 64°   Visibility: 10mi
Dew Point: 52°   Wind: 18mph
Humidity: 65%   Direction: 280°W
Pressure: 29.75"   Gusts: 29mph
Location:  41.89°N, 80.79°W
Report Text: KHZY 251853Z AUTO 28016G25KT 10SM BKN028 18/11 A2975 RMK AO2 PK WND 27027/1803 SLP074 T01780111
Loading
Personal Weather Stations






























Interactive Weather Map
Tropical Storm Tracking
New forecast layout! Learn more

10-Day Weather Forecast

Advertisements
Track Severe Weather on mobile